sensor_id;sensor_type;location;lat;lon;timestamp;temperature;humidity
40504;DHT22;42292;49.048;8.374;2022-08-19T00:00:38;21.70;99.90
40504;DHT22;42292;49.048;8.374;2022-08-19T00:03:04;21.80;99.90
40504;DHT22;42292;49.048;8.374;2022-08-19T00:05:30;21.60;99.90
40504;DHT22;42292;49.048;8.374;2022-08-19T00:07:59;21.40;99.90
40504;DHT22;42292;49.048;8.374;2022-08-19T00:10:25;21.50;99.90
40504;DHT22;42292;49.048;8.374;2022-08-19T00:12:51;21.70;99.90
40504;DHT22;42292;49.048;8.374;2022-08-19T00:15:20;21.70;99.90
40504;DHT22;42292;49.048;8.374;2022-08-19T00:17:47;21.70;99.90
40504;DHT22;42292;49.048;8.374;2022-08-19T00:20:17;21.80;99.90
40504;DHT22;42292;49.048;8.374;2022-08-19T00:22:44;21.70;99.90
40504;DHT22;42292;49.048;8.374;2022-08-19T00:25:11;21.40;99.90
40504;DHT22;42292;49.048;8.374;2022-08-19T00:27:37;21.40;99.90
40504;DHT22;42292;49.048;8.374;2022-08-19T00:30:04;21.50;99.90
40504;DHT22;42292;49.048;8.374;2022-08-19T00:32:34;21.70;99.90
40504;DHT22;42292;49.048;8.374;2022-08-19T00:35:00;21.80;99.90
40504;DHT22;42292;49.048;8.374;2022-08-19T00:37:29;21.90;99.90
40504;DHT22;42292;49.048;8.374;2022-08-19T00:39:54;21.70;99.90
40504;DHT22;42292;49.048;8.374;2022-08-19T00:42:22;21.50;99.90
40504;DHT22;42292;49.048;8.374;2022-08-19T00:44:48;21.40;99.90
40504;DHT22;42292;49.048;8.374;2022-08-19T00:47:14;21.30;99.90
40504;DHT22;42292;49.048;8.374;2022-08-19T00:52:23;21.40;99.90
40504;DHT22;42292;49.048;8.374;2022-08-19T00:54:50;21.50;99.90
40504;DHT22;42292;49.048;8.374;2022-08-19T00:57:24;21.50;99.90
40504;DHT22;42292;49.048;8.374;2022-08-19T00:59:52;21.80;99.90
40504;DHT22;42292;49.048;8.374;2022-08-19T01:02:22;21.80;99.90
40504;DHT22;42292;49.048;8.374;2022-08-19T01:04:48;21.80;99.90
40504;DHT22;42292;49.048;8.374;2022-08-19T01:07:15;21.70;99.90
40504;DHT22;42292;49.048;8.374;2022-08-19T01:09:41;21.40;99.90
40504;DHT22;42292;49.048;8.374;2022-08-19T01:12:08;21.20;99.90
40504;DHT22;42292;49.048;8.374;2022-08-19T01:14:40;21.20;99.90
40504;DHT22;42292;49.048;8.374;2022-08-19T01:17:08;21.10;99.90
40504;DHT22;42292;49.048;8.374;2022-08-19T01:19:38;21.10;99.90
40504;DHT22;42292;49.048;8.374;2022-08-19T01:24:36;21.10;99.90
40504;DHT22;42292;49.048;8.374;2022-08-19T01:27:07;21.10;99.90
40504;DHT22;42292;49.048;8.374;2022-08-19T01:29:39;21.10;99.90
40504;DHT22;42292;49.048;8.374;2022-08-19T01:32:07;21.20;99.90
40504;DHT22;42292;49.048;8.374;2022-08-19T01:34:33;21.20;99.90
40504;DHT22;42292;49.048;8.374;2022-08-19T01:37:08;21.10;99.90
40504;DHT22;42292;49.048;8.374;2022-08-19T01:39:36;21.10;99.90
40504;DHT22;42292;49.048;8.374;2022-08-19T01:42:03;21.10;99.90
40504;DHT22;42292;49.048;8.374;2022-08-19T01:44:32;21.10;99.90
40504;DHT22;42292;49.048;8.374;2022-08-19T01:46:57;21.20;99.90
40504;DHT22;42292;49.048;8.374;2022-08-19T01:49:26;21.20;99.90
40504;DHT22;42292;49.048;8.374;2022-08-19T01:51:54;21.20;99.90
40504;DHT22;42292;49.048;8.374;2022-08-19T01:54:24;21.30;99.90
40504;DHT22;42292;49.048;8.374;2022-08-19T01:57:00;21.30;99.90
40504;DHT22;42292;49.048;8.374;2022-08-19T01:59:29;21.30;99.90
40504;DHT22;42292;49.048;8.374;2022-08-19T02:01:55;21.50;99.90
40504;DHT22;42292;49.048;8.374;2022-08-19T02:04:23;21.60;99.90
40504;DHT22;42292;49.048;8.374;2022-08-19T02:06:50;21.60;99.90
40504;DHT22;42292;49.048;8.374;2022-08-19T02:09:16;21.60;99.90
40504;DHT22;42292;49.048;8.374;2022-08-19T02:11:46;21.50;99.90
40504;DHT22;42292;49.048;8.374;2022-08-19T02:14:14;21.20;99.90
40504;DHT22;42292;49.048;8.374;2022-08-19T02:16:42;21.20;99.90
40504;DHT22;42292;49.048;8.374;2022-08-19T02:19:10;21.20;99.90
40504;DHT22;42292;49.048;8.374;2022-08-19T02:21:36;21.10;99.90
40504;DHT22;42292;49.048;8.374;2022-08-19T02:24:04;21.00;99.90
40504;DHT22;42292;49.048;8.374;2022-08-19T02:26:32;20.90;99.90
40504;DHT22;42292;49.048;8.374;2022-08-19T02:28:58;21.10;99.90
40504;DHT22;42292;49.048;8.374;2022-08-19T02:31:25;21.10;99.90
40504;DHT22;42292;49.048;8.374;2022-08-19T02:33:56;21.00;99.90
40504;DHT22;42292;49.048;8.374;2022-08-19T02:36:23;21.00;99.90
40504;DHT22;42292;49.048;8.374;2022-08-19T02:38:52;21.00;99.90
40504;DHT22;42292;49.048;8.374;2022-08-19T02:41:25;21.30;99.90
40504;DHT22;42292;49.048;8.374;2022-08-19T02:43:55;21.40;99.90
40504;DHT22;42292;49.048;8.374;2022-08-19T02:46:27;21.50;99.90
40504;DHT22;42292;49.048;8.374;2022-08-19T02:48:56;21.40;99.90
40504;DHT22;42292;49.048;8.374;2022-08-19T02:51:25;21.40;99.90
40504;DHT22;42292;49.048;8.374;2022-08-19T02:53:51;21.40;99.90
40504;DHT22;42292;49.048;8.374;2022-08-19T02:56:20;21.30;99.90
40504;DHT22;42292;49.048;8.374;2022-08-19T02:58:49;21.10;99.90
40504;DHT22;42292;49.048;8.374;2022-08-19T03:01:25;21.00;99.90
40504;DHT22;42292;49.048;8.374;2022-08-19T03:03:53;20.90;99.90
40504;DHT22;42292;49.048;8.374;2022-08-19T03:06:22;20.80;99.90
40504;DHT22;42292;49.048;8.374;2022-08-19T03:08:49;20.80;99.90
40504;DHT22;42292;49.048;8.374;2022-08-19T03:13:43;20.70;99.90
40504;DHT22;42292;49.048;8.374;2022-08-19T03:16:10;20.70;99.90
40504;DHT22;42292;49.048;8.374;2022-08-19T03:18:36;20.60;99.90
40504;DHT22;42292;49.048;8.374;2022-08-19T03:21:02;20.60;99.90
40504;DHT22;42292;49.048;8.374;2022-08-19T03:23:30;20.60;99.90
40504;DHT22;42292;49.048;8.374;2022-08-19T03:25:59;20.70;99.90
40504;DHT22;42292;49.048;8.374;2022-08-19T03:28:32;20.90;99.90
40504;DHT22;42292;49.048;8.374;2022-08-19T03:31:04;21.10;99.90
40504;DHT22;42292;49.048;8.374;2022-08-19T03:33:32;21.10;99.90
40504;DHT22;42292;49.048;8.374;2022-08-19T03:38:31;20.90;99.90
40504;DHT22;42292;49.048;8.374;2022-08-19T03:41:03;20.80;99.90
40504;DHT22;42292;49.048;8.374;2022-08-19T03:43:33;20.90;99.90
40504;DHT22;42292;49.048;8.374;2022-08-19T03:46:05;20.80;99.90
40504;DHT22;42292;49.048;8.374;2022-08-19T03:48:33;20.60;99.90
40504;DHT22;42292;49.048;8.374;2022-08-19T03:50:59;20.90;99.90
40504;DHT22;42292;49.048;8.374;2022-08-19T03:53:26;21.00;99.90
40504;DHT22;42292;49.048;8.374;2022-08-19T03:55:55;20.90;99.90
40504;DHT22;42292;49.048;8.374;2022-08-19T03:58:24;21.10;99.90
40504;DHT22;42292;49.048;8.374;2022-08-19T04:00:50;21.00;99.90
40504;DHT22;42292;49.048;8.374;2022-08-19T04:03:18;21.00;99.90
40504;DHT22;42292;49.048;8.374;2022-08-19T04:05:45;21.20;99.90
40504;DHT22;42292;49.048;8.374;2022-08-19T04:08:11;21.10;99.90
40504;DHT22;42292;49.048;8.374;2022-08-19T04:10:39;21.00;99.90
40504;DHT22;42292;49.048;8.374;2022-08-19T04:13:06;21.00;99.90
40504;DHT22;42292;49.048;8.374;2022-08-19T04:15:32;20.80;99.90
40504;DHT22;42292;49.048;8.374;2022-08-19T04:18:05;20.60;99.90
40504;DHT22;42292;49.048;8.374;2022-08-19T04:20:45;20.60;99.90
40504;DHT22;42292;49.048;8.374;2022-08-19T04:23:14;20.70;99.90
40504;DHT22;42292;49.048;8.374;2022-08-19T04:25:42;20.80;99.90
40504;DHT22;42292;49.048;8.374;2022-08-19T04:28:10;20.80;99.90
40504;DHT22;42292;49.048;8.374;2022-08-19T04:30:44;20.40;99.90
40504;DHT22;42292;49.048;8.374;2022-08-19T04:33:12;20.40;99.90
40504;DHT22;42292;49.048;8.374;2022-08-19T04:35:44;20.50;99.90
40504;DHT22;42292;49.048;8.374;2022-08-19T04:38:10;20.70;99.90
40504;DHT22;42292;49.048;8.374;2022-08-19T04:41:05;20.80;99.90
40504;DHT22;42292;49.048;8.374;2022-08-19T04:43:54;20.80;99.90
40504;DHT22;42292;49.048;8.374;2022-08-19T04:46:20;20.70;99.90
40504;DHT22;42292;49.048;8.374;2022-08-19T04:48:46;20.80;99.90
40504;DHT22;42292;49.048;8.374;2022-08-19T04:51:12;20.70;99.90
40504;DHT22;42292;49.048;8.374;2022-08-19T04:53:40;20.50;99.90
40504;DHT22;42292;49.048;8.374;2022-08-19T04:56:14;20.60;99.90
40504;DHT22;42292;49.048;8.374;2022-08-19T04:58:41;20.70;99.90
40504;DHT22;42292;49.048;8.374;2022-08-19T05:01:09;20.60;99.90
40504;DHT22;42292;49.048;8.374;2022-08-19T05:03:35;20.90;99.90
40504;DHT22;42292;49.048;8.374;2022-08-19T05:06:10;21.10;99.90
40504;DHT22;42292;49.048;8.374;2022-08-19T05:08:37;21.10;99.90
40504;DHT22;42292;49.048;8.374;2022-08-19T05:11:11;21.20;99.90
40504;DHT22;42292;49.048;8.374;2022-08-19T05:13:39;21.30;99.90
40504;DHT22;42292;49.048;8.374;2022-08-19T05:16:08;21.30;99.90
40504;DHT22;42292;49.048;8.374;2022-08-19T05:18:34;21.30;99.90
40504;DHT22;42292;49.048;8.374;2022-08-19T05:21:19;21.40;99.90
40504;DHT22;42292;49.048;8.374;2022-08-19T05:24:09;21.20;99.90
40504;DHT22;42292;49.048;8.374;2022-08-19T05:26:42;21.30;99.90
40504;DHT22;42292;49.048;8.374;2022-08-19T05:29:10;21.30;99.90
40504;DHT22;42292;49.048;8.374;2022-08-19T05:31:36;21.50;99.90
40504;DHT22;42292;49.048;8.374;2022-08-19T05:34:05;21.60;99.90
40504;DHT22;42292;49.048;8.374;2022-08-19T05:36:37;21.60;99.90
40504;DHT22;42292;49.048;8.374;2022-08-19T05:39:06;21.60;99.90
40504;DHT22;42292;49.048;8.374;2022-08-19T05:41:37;21.70;99.90
40504;DHT22;42292;49.048;8.374;2022-08-19T05:44:06;21.80;99.90
40504;DHT22;42292;49.048;8.374;2022-08-19T05:46:34;21.80;99.90
40504;DHT22;42292;49.048;8.374;2022-08-19T05:49:04;21.90;99.90
40504;DHT22;42292;49.048;8.374;2022-08-19T05:51:31;21.80;99.90
40504;DHT22;42292;49.048;8.374;2022-08-19T05:54:01;21.70;99.90
40504;DHT22;42292;49.048;8.374;2022-08-19T05:56:30;21.70;99.90
40504;DHT22;42292;49.048;8.374;2022-08-19T05:58:56;21.60;99.90
40504;DHT22;42292;49.048;8.374;2022-08-19T06:01:24;21.40;99.90
40504;DHT22;42292;49.048;8.374;2022-08-19T06:03:52;21.40;99.90
40504;DHT22;42292;49.048;8.374;2022-08-19T06:06:19;21.50;99.90
40504;DHT22;42292;49.048;8.374;2022-08-19T06:08:47;21.30;99.90
40504;DHT22;42292;49.048;8.374;2022-08-19T06:11:28;21.50;99.90
40504;DHT22;42292;49.048;8.374;2022-08-19T06:14:01;21.80;99.90
40504;DHT22;42292;49.048;8.374;2022-08-19T06:16:28;21.60;99.90
40504;DHT22;42292;49.048;8.374;2022-08-19T06:18:59;21.70;99.90
40504;DHT22;42292;49.048;8.374;2022-08-19T06:21:27;21.90;99.90
40504;DHT22;42292;49.048;8.374;2022-08-19T06:23:54;22.00;99.90
40504;DHT22;42292;49.048;8.374;2022-08-19T06:26:21;21.80;99.90
40504;DHT22;42292;49.048;8.374;2022-08-19T06:28:47;21.90;99.90
40504;DHT22;42292;49.048;8.374;2022-08-19T06:31:25;22.00;99.90
40504;DHT22;42292;49.048;8.374;2022-08-19T06:33:51;22.20;99.90
40504;DHT22;42292;49.048;8.374;2022-08-19T06:36:25;22.20;99.90
40504;DHT22;42292;49.048;8.374;2022-08-19T06:38:57;22.30;99.90
40504;DHT22;42292;49.048;8.374;2022-08-19T06:41:25;22.10;99.90
40504;DHT22;42292;49.048;8.374;2022-08-19T06:43:51;22.30;99.90
40504;DHT22;42292;49.048;8.374;2022-08-19T06:46:18;22.30;99.90
40504;DHT22;42292;49.048;8.374;2022-08-19T06:48:47;22.50;99.90
40504;DHT22;42292;49.048;8.374;2022-08-19T06:51:21;22.70;99.90
40504;DHT22;42292;49.048;8.374;2022-08-19T06:53:55;22.40;99.90
40504;DHT22;42292;49.048;8.374;2022-08-19T06:56:26;22.00;99.90
40504;DHT22;42292;49.048;8.374;2022-08-19T06:59:10;22.00;99.90
40504;DHT22;42292;49.048;8.374;2022-08-19T07:01:48;22.40;99.90
40504;DHT22;42292;49.048;8.374;2022-08-19T07:04:19;22.50;99.90
40504;DHT22;42292;49.048;8.374;2022-08-19T07:06:48;22.50;99.90
40504;DHT22;42292;49.048;8.374;2022-08-19T07:09:17;22.70;99.90
40504;DHT22;42292;49.048;8.374;2022-08-19T07:11:49;22.90;99.90
40504;DHT22;42292;49.048;8.374;2022-08-19T07:14:17;23.10;99.90
40504;DHT22;42292;49.048;8.374;2022-08-19T07:16:43;22.90;99.90
40504;DHT22;42292;49.048;8.374;2022-08-19T07:19:11;23.10;99.90
40504;DHT22;42292;49.048;8.374;2022-08-19T07:21:37;23.30;99.90
40504;DHT22;42292;49.048;8.374;2022-08-19T07:24:05;23.70;99.90
40504;DHT22;42292;49.048;8.374;2022-08-19T07:26:33;23.90;99.90
40504;DHT22;42292;49.048;8.374;2022-08-19T07:29:01;23.80;99.90
40504;DHT22;42292;49.048;8.374;2022-08-19T07:31:29;23.80;99.90
40504;DHT22;42292;49.048;8.374;2022-08-19T07:33:56;24.20;99.90
40504;DHT22;42292;49.048;8.374;2022-08-19T07:36:27;24.50;99.90
40504;DHT22;42292;49.048;8.374;2022-08-19T07:38:59;24.50;99.90
40504;DHT22;42292;49.048;8.374;2022-08-19T07:41:31;24.40;99.90
40504;DHT22;42292;49.048;8.374;2022-08-19T07:43:59;24.50;99.90
40504;DHT22;42292;49.048;8.374;2022-08-19T07:46:32;24.60;99.90
40504;DHT22;42292;49.048;8.374;2022-08-19T07:49:01;24.70;99.90
40504;DHT22;42292;49.048;8.374;2022-08-19T07:51:28;24.30;99.90
40504;DHT22;42292;49.048;8.374;2022-08-19T07:53:54;24.60;99.90
40504;DHT22;42292;49.048;8.374;2022-08-19T07:56:20;24.80;99.90
40504;DHT22;42292;49.048;8.374;2022-08-19T07:58:52;24.80;99.90
40504;DHT22;42292;49.048;8.374;2022-08-19T08:01:22;24.80;99.90
40504;DHT22;42292;49.048;8.374;2022-08-19T08:03:51;24.90;99.90
40504;DHT22;42292;49.048;8.374;2022-08-19T08:06:38;24.80;99.90
40504;DHT22;42292;49.048;8.374;2022-08-19T08:09:29;24.90;99.90
40504;DHT22;42292;49.048;8.374;2022-08-19T08:12:01;25.00;99.90
40504;DHT22;42292;49.048;8.374;2022-08-19T08:14:34;24.90;99.90
40504;DHT22;42292;49.048;8.374;2022-08-19T08:17:01;24.90;99.90
40504;DHT22;42292;49.048;8.374;2022-08-19T08:19:30;25.10;99.90
40504;DHT22;42292;49.048;8.374;2022-08-19T08:21:57;25.10;99.90
40504;DHT22;42292;49.048;8.374;2022-08-19T08:24:25;25.40;99.90
40504;DHT22;42292;49.048;8.374;2022-08-19T08:26:53;25.50;99.90
40504;DHT22;42292;49.048;8.374;2022-08-19T08:29:19;25.60;99.90
40504;DHT22;42292;49.048;8.374;2022-08-19T08:31:45;25.90;99.90
40504;DHT22;42292;49.048;8.374;2022-08-19T08:34:15;26.20;99.90
40504;DHT22;42292;49.048;8.374;2022-08-19T08:36:43;26.20;99.90
40504;DHT22;42292;49.048;8.374;2022-08-19T08:39:12;26.50;99.90
40504;DHT22;42292;49.048;8.374;2022-08-19T08:42:17;26.70;99.90
40504;DHT22;42292;49.048;8.374;2022-08-19T08:45:14;26.90;99.90
40504;DHT22;42292;49.048;8.374;2022-08-19T08:47:45;27.10;99.90
40504;DHT22;42292;49.048;8.374;2022-08-19T08:50:19;27.60;99.90
40504;DHT22;42292;49.048;8.374;2022-08-19T08:52:53;27.80;99.90
40504;DHT22;42292;49.048;8.374;2022-08-19T08:55:26;27.80;99.90
40504;DHT22;42292;49.048;8.374;2022-08-19T08:58:05;28.00;99.90
40504;DHT22;42292;49.048;8.374;2022-08-19T09:00:38;28.10;99.90
40504;DHT22;42292;49.048;8.374;2022-08-19T09:03:12;28.20;99.90
40504;DHT22;42292;49.048;8.374;2022-08-19T09:11:08;28.00;99.90
40504;DHT22;42292;49.048;8.374;2022-08-19T09:14:02;28.00;99.90
40504;DHT22;42292;49.048;8.374;2022-08-19T09:16:30;27.80;99.90
40504;DHT22;42292;49.048;8.374;2022-08-19T09:19:07;27.90;99.90
40504;DHT22;42292;49.048;8.374;2022-08-19T09:21:33;27.80;99.90
40504;DHT22;42292;49.048;8.374;2022-08-19T09:24:01;27.70;99.90
40504;DHT22;42292;49.048;8.374;2022-08-19T09:26:31;27.80;99.90
40504;DHT22;42292;49.048;8.374;2022-08-19T09:29:00;28.10;99.90
40504;DHT22;42292;49.048;8.374;2022-08-19T09:31:28;27.80;99.90
40504;DHT22;42292;49.048;8.374;2022-08-19T09:33:55;27.90;99.90
40504;DHT22;42292;49.048;8.374;2022-08-19T09:36:23;28.20;99.90
40504;DHT22;42292;49.048;8.374;2022-08-19T09:38:55;27.90;99.90
40504;DHT22;42292;49.048;8.374;2022-08-19T09:41:25;28.20;99.90
40504;DHT22;42292;49.048;8.374;2022-08-19T09:43:53;28.30;99.90
40504;DHT22;42292;49.048;8.374;2022-08-19T09:46:22;28.40;99.90
40504;DHT22;42292;49.048;8.374;2022-08-19T09:48:49;28.50;99.90
40504;DHT22;42292;49.048;8.374;2022-08-19T09:51:24;28.80;99.90
40504;DHT22;42292;49.048;8.374;2022-08-19T09:53:52;28.80;99.90
40504;DHT22;42292;49.048;8.374;2022-08-19T09:56:24;28.80;99.90
40504;DHT22;42292;49.048;8.374;2022-08-19T09:58:50;29.00;99.90
40504;DHT22;42292;49.048;8.374;2022-08-19T10:01:26;29.40;99.90
40504;DHT22;42292;49.048;8.374;2022-08-19T10:03:55;29.10;99.90
40504;DHT22;42292;49.048;8.374;2022-08-19T10:06:25;28.80;99.90
40504;DHT22;42292;49.048;8.374;2022-08-19T10:08:54;28.50;99.90
40504;DHT22;42292;49.048;8.374;2022-08-19T10:11:23;28.70;99.90
40504;DHT22;42292;49.048;8.374;2022-08-19T10:13:48;29.20;99.90
40504;DHT22;42292;49.048;8.374;2022-08-19T10:16:18;29.10;99.90
40504;DHT22;42292;49.048;8.374;2022-08-19T10:18:45;29.40;99.90
40504;DHT22;42292;49.048;8.374;2022-08-19T10:21:16;29.40;99.90
40504;DHT22;42292;49.048;8.374;2022-08-19T10:23:44;29.50;99.90
40504;DHT22;42292;49.048;8.374;2022-08-19T10:26:14;29.60;99.90
40504;DHT22;42292;49.048;8.374;2022-08-19T10:28:43;29.70;99.90
40504;DHT22;42292;49.048;8.374;2022-08-19T10:31:11;30.20;99.00
40504;DHT22;42292;49.048;8.374;2022-08-19T10:33:39;30.20;98.90
40504;DHT22;42292;49.048;8.374;2022-08-19T10:36:18;30.40;97.90
40504;DHT22;42292;49.048;8.374;2022-08-19T10:38:46;30.70;96.60
40504;DHT22;42292;49.048;8.374;2022-08-19T10:41:18;30.50;97.60
40504;DHT22;42292;49.048;8.374;2022-08-19T10:43:44;30.40;97.00
40504;DHT22;42292;49.048;8.374;2022-08-19T10:46:13;31.00;96.50
40504;DHT22;42292;49.048;8.374;2022-08-19T10:48:39;31.70;95.10
40504;DHT22;42292;49.048;8.374;2022-08-19T10:51:05;31.70;94.40
40504;DHT22;42292;49.048;8.374;2022-08-19T10:53:50;32.10;93.40
40504;DHT22;42292;49.048;8.374;2022-08-19T10:56:18;31.90;94.40
40504;DHT22;42292;49.048;8.374;2022-08-19T10:59:04;31.90;93.70
40504;DHT22;42292;49.048;8.374;2022-08-19T11:01:31;31.70;94.10
40504;DHT22;42292;49.048;8.374;2022-08-19T11:04:01;31.00;93.20
40504;DHT22;42292;49.048;8.374;2022-08-19T11:06:31;30.50;94.50
40504;DHT22;42292;49.048;8.374;2022-08-19T11:08:57;30.50;94.80
40504;DHT22;42292;49.048;8.374;2022-08-19T11:11:26;29.90;94.80
40504;DHT22;42292;49.048;8.374;2022-08-19T11:13:52;30.20;95.50
40504;DHT22;42292;49.048;8.374;2022-08-19T11:16:22;30.80;93.60
40504;DHT22;42292;49.048;8.374;2022-08-19T11:18:53;30.60;93.40
40504;DHT22;42292;49.048;8.374;2022-08-19T11:24:00;30.90;93.20
40504;DHT22;42292;49.048;8.374;2022-08-19T11:26:29;31.10;92.80
40504;DHT22;42292;49.048;8.374;2022-08-19T11:28:58;30.80;92.50
40504;DHT22;42292;49.048;8.374;2022-08-19T11:31:32;31.00;92.20
40504;DHT22;42292;49.048;8.374;2022-08-19T11:34:00;31.20;91.60
40504;DHT22;42292;49.048;8.374;2022-08-19T11:36:28;30.70;92.60
40504;DHT22;42292;49.048;8.374;2022-08-19T11:38:54;30.60;91.90
40504;DHT22;42292;49.048;8.374;2022-08-19T11:41:23;30.30;92.30
40504;DHT22;42292;49.048;8.374;2022-08-19T11:43:52;30.00;92.20
40504;DHT22;42292;49.048;8.374;2022-08-19T11:46:21;29.40;92.40
40504;DHT22;42292;49.048;8.374;2022-08-19T11:48:47;29.80;92.30
40504;DHT22;42292;49.048;8.374;2022-08-19T11:51:18;30.30;91.60
40504;DHT22;42292;49.048;8.374;2022-08-19T11:53:47;30.60;91.30
40504;DHT22;42292;49.048;8.374;2022-08-19T11:56:12;30.70;90.30
40504;DHT22;42292;49.048;8.374;2022-08-19T11:58:39;30.70;90.30
40504;DHT22;42292;49.048;8.374;2022-08-19T12:01:09;31.00;90.20
40504;DHT22;42292;49.048;8.374;2022-08-19T12:03:41;30.40;90.70
40504;DHT22;42292;49.048;8.374;2022-08-19T12:06:12;29.60;92.40
40504;DHT22;42292;49.048;8.374;2022-08-19T12:08:41;29.80;92.60
40504;DHT22;42292;49.048;8.374;2022-08-19T12:11:09;29.80;92.90
40504;DHT22;42292;49.048;8.374;2022-08-19T12:13:37;29.60;92.60
40504;DHT22;42292;49.048;8.374;2022-08-19T12:16:11;29.30;92.60
40504;DHT22;42292;49.048;8.374;2022-08-19T12:18:41;29.20;92.10
40504;DHT22;42292;49.048;8.374;2022-08-19T12:21:15;29.20;92.00
40504;DHT22;42292;49.048;8.374;2022-08-19T12:23:42;29.40;91.60
40504;DHT22;42292;49.048;8.374;2022-08-19T12:26:12;29.70;91.20
40504;DHT22;42292;49.048;8.374;2022-08-19T12:28:37;29.60;91.40
40504;DHT22;42292;49.048;8.374;2022-08-19T12:31:04;29.70;91.10
40504;DHT22;42292;49.048;8.374;2022-08-19T12:33:29;30.20;90.30
40504;DHT22;42292;49.048;8.374;2022-08-19T12:36:03;30.80;90.00
40504;DHT22;42292;49.048;8.374;2022-08-19T12:38:30;31.20;87.50
40504;DHT22;42292;49.048;8.374;2022-08-19T12:40:58;32.20;86.20
40504;DHT22;42292;49.048;8.374;2022-08-19T12:43:24;33.20;83.50
40504;DHT22;42292;49.048;8.374;2022-08-19T12:45:52;34.10;80.50
40504;DHT22;42292;49.048;8.374;2022-08-19T12:48:18;34.60;78.70
40504;DHT22;42292;49.048;8.374;2022-08-19T12:50:44;34.40;73.90
40504;DHT22;42292;49.048;8.374;2022-08-19T12:53:11;33.40;79.20
40504;DHT22;42292;49.048;8.374;2022-08-19T12:55:37;33.30;78.80
40504;DHT22;42292;49.048;8.374;2022-08-19T12:58:03;33.20;78.90
40504;DHT22;42292;49.048;8.374;2022-08-19T13:00:28;33.00;74.40
40504;DHT22;42292;49.048;8.374;2022-08-19T13:02:59;32.10;75.70
40504;DHT22;42292;49.048;8.374;2022-08-19T13:05:27;31.50;76.60
40504;DHT22;42292;49.048;8.374;2022-08-19T13:07:55;31.40;79.30
40504;DHT22;42292;49.048;8.374;2022-08-19T13:10:23;31.80;80.70
40504;DHT22;42292;49.048;8.374;2022-08-19T13:12:53;32.80;79.30
40504;DHT22;42292;49.048;8.374;2022-08-19T13:15:20;33.60;77.10
40504;DHT22;42292;49.048;8.374;2022-08-19T13:17:48;34.60;74.20
40504;DHT22;42292;49.048;8.374;2022-08-19T13:20:19;35.00;72.20
40504;DHT22;42292;49.048;8.374;2022-08-19T13:22:48;35.30;70.40
40504;DHT22;42292;49.048;8.374;2022-08-19T13:25:17;35.00;70.40
40504;DHT22;42292;49.048;8.374;2022-08-19T13:27:47;34.80;69.40
40504;DHT22;42292;49.048;8.374;2022-08-19T13:30:15;34.70;65.80
40504;DHT22;42292;49.048;8.374;2022-08-19T13:33:00;34.30;65.40
40504;DHT22;42292;49.048;8.374;2022-08-19T13:35:56;34.30;64.50
40504;DHT22;42292;49.048;8.374;2022-08-19T13:38:23;34.80;63.70
40504;DHT22;42292;49.048;8.374;2022-08-19T13:40:51;35.20;62.20
40504;DHT22;42292;49.048;8.374;2022-08-19T13:43:19;35.60;63.10
40504;DHT22;42292;49.048;8.374;2022-08-19T13:45:47;35.70;60.80
40504;DHT22;42292;49.048;8.374;2022-08-19T13:48:13;34.90;60.80
40504;DHT22;42292;49.048;8.374;2022-08-19T13:50:42;34.20;62.60
40504;DHT22;42292;49.048;8.374;2022-08-19T13:53:11;34.20;61.90
40504;DHT22;42292;49.048;8.374;2022-08-19T13:55:38;34.60;62.20
40504;DHT22;42292;49.048;8.374;2022-08-19T13:58:07;34.70;62.00
40504;DHT22;42292;49.048;8.374;2022-08-19T14:00:38;35.20;61.40
40504;DHT22;42292;49.048;8.374;2022-08-19T14:03:04;36.10;59.10
40504;DHT22;42292;49.048;8.374;2022-08-19T14:05:33;35.50;60.00
40504;DHT22;42292;49.048;8.374;2022-08-19T14:08:02;34.00;62.90
40504;DHT22;42292;49.048;8.374;2022-08-19T14:10:28;33.70;63.80
40504;DHT22;42292;49.048;8.374;2022-08-19T14:12:57;33.00;64.90
40504;DHT22;42292;49.048;8.374;2022-08-19T14:15:26;32.50;66.30
40504;DHT22;42292;49.048;8.374;2022-08-19T14:17:52;32.20;66.60
40504;DHT22;42292;49.048;8.374;2022-08-19T14:20:18;31.70;66.80
40504;DHT22;42292;49.048;8.374;2022-08-19T14:22:47;31.80;67.90
40504;DHT22;42292;49.048;8.374;2022-08-19T14:25:21;31.30;68.40
40504;DHT22;42292;49.048;8.374;2022-08-19T14:27:48;31.60;68.70
40504;DHT22;42292;49.048;8.374;2022-08-19T14:30:16;31.60;67.90
40504;DHT22;42292;49.048;8.374;2022-08-19T14:32:45;32.50;65.90
40504;DHT22;42292;49.048;8.374;2022-08-19T14:35:14;34.70;63.20
40504;DHT22;42292;49.048;8.374;2022-08-19T14:37:44;36.50;59.90
40504;DHT22;42292;49.048;8.374;2022-08-19T14:40:14;36.30;59.90
40504;DHT22;42292;49.048;8.374;2022-08-19T14:42:41;37.20;59.20
40504;DHT22;42292;49.048;8.374;2022-08-19T14:45:10;35.60;59.50
40504;DHT22;42292;49.048;8.374;2022-08-19T14:47:37;34.40;62.50
40504;DHT22;42292;49.048;8.374;2022-08-19T14:50:05;32.90;64.60
40504;DHT22;42292;49.048;8.374;2022-08-19T14:52:32;31.90;67.40
40504;DHT22;42292;49.048;8.374;2022-08-19T14:55:00;31.40;67.80
40504;DHT22;42292;49.048;8.374;2022-08-19T14:57:25;31.00;68.90
40504;DHT22;42292;49.048;8.374;2022-08-19T14:59:53;30.60;69.40
40504;DHT22;42292;49.048;8.374;2022-08-19T15:02:22;30.40;69.80
40504;DHT22;42292;49.048;8.374;2022-08-19T15:04:48;30.20;71.80
40504;DHT22;42292;49.048;8.374;2022-08-19T15:07:16;30.10;72.20
40504;DHT22;42292;49.048;8.374;2022-08-19T15:09:44;29.90;71.70
40504;DHT22;42292;49.048;8.374;2022-08-19T15:12:10;29.70;73.10
40504;DHT22;42292;49.048;8.374;2022-08-19T15:14:36;29.40;74.00
40504;DHT22;42292;49.048;8.374;2022-08-19T15:17:05;29.20;74.50
40504;DHT22;42292;49.048;8.374;2022-08-19T15:19:31;29.00;75.20
40504;DHT22;42292;49.048;8.374;2022-08-19T15:21:58;28.90;76.10
40504;DHT22;42292;49.048;8.374;2022-08-19T15:24:26;28.70;76.90
40504;DHT22;42292;49.048;8.374;2022-08-19T15:26:55;28.60;76.90
40504;DHT22;42292;49.048;8.374;2022-08-19T15:29:21;28.70;77.00
40504;DHT22;42292;49.048;8.374;2022-08-19T15:31:50;28.70;77.20
40504;DHT22;42292;49.048;8.374;2022-08-19T15:34:16;28.70;77.10
40504;DHT22;42292;49.048;8.374;2022-08-19T15:36:42;28.80;76.60
40504;DHT22;42292;49.048;8.374;2022-08-19T15:39:08;28.80;76.30
40504;DHT22;42292;49.048;8.374;2022-08-19T15:41:35;28.90;75.90
40504;DHT22;42292;49.048;8.374;2022-08-19T15:44:07;28.80;76.40
40504;DHT22;42292;49.048;8.374;2022-08-19T15:46:35;29.00;76.80
40504;DHT22;42292;49.048;8.374;2022-08-19T15:49:02;29.10;75.30
40504;DHT22;42292;49.048;8.374;2022-08-19T15:51:32;29.10;75.10
40504;DHT22;42292;49.048;8.374;2022-08-19T15:54:03;29.10;74.50
40504;DHT22;42292;49.048;8.374;2022-08-19T15:56:29;29.30;73.70
40504;DHT22;42292;49.048;8.374;2022-08-19T15:59:13;29.40;73.70
40504;DHT22;42292;49.048;8.374;2022-08-19T16:01:57;29.40;73.90